createdAt,value
2022-10-18T00:00:01.073Z,18.60
2022-10-18T00:02:27.735Z,18.70
2022-10-18T00:04:54.346Z,18.60
2022-10-18T00:07:20.991Z,18.60
2022-10-18T00:09:47.605Z,18.60
2022-10-18T00:12:14.461Z,18.60
2022-10-18T00:14:41.111Z,18.50
2022-10-18T00:17:07.729Z,18.50
2022-10-18T00:19:34.345Z,18.50
2022-10-18T00:22:00.982Z,18.60
2022-10-18T00:24:27.595Z,18.50
2022-10-18T00:26:54.240Z,18.40
2022-10-18T00:29:20.812Z,18.50
2022-10-18T00:31:47.415Z,18.40
2022-10-18T00:34:16.271Z,18.40
2022-10-18T00:36:44.049Z,18.40
2022-10-18T00:39:16.336Z,18.50
2022-10-18T00:41:43.498Z,18.40
2022-10-18T00:44:12.788Z,18.40
2022-10-18T00:46:41.869Z,18.40
2022-10-18T00:49:21.307Z,18.30
2022-10-18T00:51:49.802Z,18.30
2022-10-18T00:54:17.999Z,18.30
2022-10-18T00:56:45.262Z,18.30
2022-10-18T00:59:15.133Z,18.40
2022-10-18T01:01:41.891Z,18.30
2022-10-18T01:04:08.755Z,18.30
2022-10-18T01:07:03.566Z,18.20
2022-10-18T01:09:58.660Z,18.20
2022-10-18T01:12:33.087Z,18.20
2022-10-18T01:15:06.892Z,18.20
2022-10-18T01:17:48.739Z,18.20
2022-10-18T01:20:46.333Z,18.20
2022-10-18T01:23:36.711Z,18.20
2022-10-18T01:26:27.649Z,18.20
2022-10-18T01:29:29.041Z,18.20
2022-10-18T01:32:06.862Z,18.20
2022-10-18T01:34:37.022Z,18.20
2022-10-18T01:37:08.198Z,18.10
2022-10-18T01:39:38.377Z,18.10
2022-10-18T01:42:10.522Z,18.10
2022-10-18T01:44:39.017Z,18.10
2022-10-18T01:47:09.518Z,18.10
2022-10-18T01:49:36.090Z,18.10
2022-10-18T01:52:03.057Z,18.00
2022-10-18T01:54:39.116Z,18.00
2022-10-18T01:57:32.967Z,18.00
2022-10-18T02:00:16.137Z,18.00
2022-10-18T02:03:04.154Z,18.00
2022-10-18T02:05:54.281Z,18.00
2022-10-18T02:08:23.983Z,17.90
2022-10-18T02:11:00.678Z,17.90
2022-10-18T02:13:33.061Z,17.90
2022-10-18T02:16:04.869Z,17.90
2022-10-18T02:18:48.168Z,17.90
2022-10-18T02:21:19.359Z,17.90
2022-10-18T02:23:46.794Z,17.90
2022-10-18T02:26:15.083Z,17.90
2022-10-18T02:28:42.028Z,17.80
2022-10-18T02:31:24.147Z,17.80
2022-10-18T02:33:58.474Z,17.80
2022-10-18T02:36:34.634Z,17.80
2022-10-18T02:39:06.219Z,17.90
2022-10-18T02:41:33.536Z,17.80
2022-10-18T02:44:00.113Z,17.80
2022-10-18T02:48:53.295Z,17.70
2022-10-18T02:51:19.929Z,17.70
2022-10-18T02:53:46.507Z,17.60
2022-10-18T02:56:13.191Z,17.70
2022-10-18T02:58:39.784Z,17.80
2022-10-18T03:01:06.401Z,17.70
2022-10-18T03:03:33.043Z,17.60
2022-10-18T03:05:59.695Z,17.60
2022-10-18T03:08:26.377Z,17.60
2022-10-18T03:10:52.988Z,17.70
2022-10-18T03:13:19.672Z,17.50
2022-10-18T03:15:48.011Z,17.60
2022-10-18T03:18:14.991Z,17.60
2022-10-18T03:20:41.659Z,17.60
2022-10-18T03:23:08.287Z,17.60
2022-10-18T03:25:34.981Z,17.60
2022-10-18T03:28:01.617Z,17.60
2022-10-18T03:30:28.217Z,17.60
2022-10-18T03:32:54.818Z,17.60
2022-10-18T03:35:22.343Z,17.50
2022-10-18T03:37:49.318Z,17.50
2022-10-18T03:40:16.062Z,17.50
2022-10-18T03:42:42.787Z,17.50
2022-10-18T03:45:09.964Z,17.50
2022-10-18T03:47:36.653Z,17.50
2022-10-18T03:50:03.747Z,17.50
2022-10-18T03:52:30.619Z,17.50
2022-10-18T03:54:57.530Z,17.50
2022-10-18T03:57:24.176Z,17.60
2022-10-18T03:59:50.783Z,17.40
2022-10-18T04:02:17.355Z,17.50
2022-10-18T04:04:44.008Z,17.50
2022-10-18T04:07:10.583Z,17.50
2022-10-18T04:09:37.149Z,17.40
2022-10-18T04:12:03.941Z,17.40
2022-10-18T04:14:30.535Z,17.40
2022-10-18T04:16:57.108Z,17.40
2022-10-18T04:19:23.707Z,17.40
2022-10-18T04:21:50.301Z,17.40
2022-10-18T04:24:17.906Z,17.40
2022-10-18T04:26:44.563Z,17.40
2022-10-18T04:29:11.561Z,17.40
2022-10-18T04:31:38.202Z,17.40
2022-10-18T04:34:04.782Z,17.40
2022-10-18T04:36:31.997Z,17.40
2022-10-18T04:38:58.605Z,17.40
2022-10-18T04:41:25.251Z,17.40
2022-10-18T04:43:51.859Z,17.40
2022-10-18T04:46:18.475Z,17.50
2022-10-18T04:48:45.061Z,17.30
2022-10-18T04:51:11.634Z,17.40
2022-10-18T04:53:38.246Z,17.40
2022-10-18T04:56:05.251Z,17.30
2022-10-18T04:58:32.759Z,17.40
2022-10-18T05:00:59.334Z,17.40
2022-10-18T05:03:26.012Z,17.30
2022-10-18T05:06:07.504Z,17.40
2022-10-18T05:08:35.530Z,17.30
2022-10-18T05:11:03.590Z,17.30
2022-10-18T05:13:31.066Z,17.50
2022-10-18T05:15:59.419Z,17.30
2022-10-18T05:18:26.190Z,17.30
2022-10-18T05:20:52.839Z,17.40
2022-10-18T05:23:19.564Z,17.40
2022-10-18T05:25:46.218Z,17.20
2022-10-18T05:28:38.042Z,17.20
2022-10-18T05:31:04.527Z,17.20
2022-10-18T05:33:31.367Z,17.30
2022-10-18T05:35:58.291Z,17.20
2022-10-18T05:38:25.203Z,17.20
2022-10-18T05:40:51.980Z,17.20
2022-10-18T05:43:18.675Z,17.20
2022-10-18T05:45:51.491Z,17.20
2022-10-18T05:48:18.570Z,17.20
2022-10-18T05:50:49.830Z,17.20
2022-10-18T05:53:35.672Z,17.10
2022-10-18T05:56:03.322Z,17.20
2022-10-18T05:58:29.986Z,17.20
2022-10-18T06:01:00.040Z,17.20
2022-10-18T06:03:36.492Z,17.20
2022-10-18T06:06:06.386Z,17.10
2022-10-18T06:08:33.474Z,17.20
2022-10-18T06:11:00.140Z,17.20
2022-10-18T06:13:27.148Z,17.20
2022-10-18T06:15:58.870Z,17.20
2022-10-18T06:18:25.555Z,17.20
2022-10-18T06:20:59.333Z,17.20
2022-10-18T06:23:27.931Z,17.20
2022-10-18T06:25:58.826Z,17.30
2022-10-18T06:28:25.615Z,17.20
2022-10-18T06:30:52.238Z,17.20
2022-10-18T06:33:18.875Z,17.20
2022-10-18T06:36:03.909Z,17.20
2022-10-18T06:38:30.783Z,17.20
2022-10-18T06:40:58.043Z,17.20
2022-10-18T06:43:25.733Z,17.20
2022-10-18T06:45:53.233Z,17.20
2022-10-18T06:48:21.004Z,17.20
2022-10-18T06:50:57.286Z,17.10
2022-10-18T06:53:25.760Z,17.10
2022-10-18T06:55:52.847Z,17.20
2022-10-18T06:58:19.461Z,17.20
2022-10-18T07:00:46.895Z,17.20
2022-10-18T07:03:13.591Z,17.20
2022-10-18T07:05:40.225Z,17.20
2022-10-18T07:08:06.875Z,17.20
2022-10-18T07:10:33.494Z,17.20
2022-10-18T07:13:20.121Z,17.20
2022-10-18T07:15:46.670Z,17.20
2022-10-18T07:18:13.332Z,17.20
2022-10-18T07:20:40.214Z,17.30
2022-10-18T07:23:08.517Z,17.20
2022-10-18T07:25:36.390Z,17.10
2022-10-18T07:28:03.314Z,17.20
2022-10-18T07:30:29.973Z,17.20
2022-10-18T07:32:56.552Z,17.20
2022-10-18T07:35:23.145Z,17.30
2022-10-18T07:37:49.771Z,17.30
2022-10-18T07:40:16.376Z,17.40
2022-10-18T07:42:42.981Z,17.30
2022-10-18T07:45:10.465Z,17.40
2022-10-18T07:47:37.434Z,17.40
2022-10-18T07:50:04.514Z,17.40
2022-10-18T07:52:31.124Z,17.50
2022-10-18T07:54:57.739Z,17.50
2022-10-18T07:57:24.373Z,17.50
2022-10-18T07:59:56.296Z,17.60
2022-10-18T08:02:24.388Z,17.40
2022-10-18T08:04:51.243Z,17.60
2022-10-18T08:07:17.922Z,17.50
2022-10-18T08:09:44.534Z,17.60
2022-10-18T08:12:11.140Z,17.60
2022-10-18T08:14:37.764Z,17.70
2022-10-18T08:17:04.369Z,17.70
2022-10-18T08:19:31.031Z,17.80
2022-10-18T08:21:57.757Z,17.80
2022-10-18T08:24:24.431Z,17.90
2022-10-18T08:26:51.093Z,17.90
2022-10-18T08:29:23.380Z,17.90
2022-10-18T08:31:52.476Z,18.00
2022-10-18T08:34:19.967Z,18.00
2022-10-18T08:36:46.809Z,18.10
2022-10-18T08:39:13.411Z,18.20
2022-10-18T08:42:15.015Z,18.20
2022-10-18T08:44:50.394Z,18.20
2022-10-18T08:47:48.152Z,18.20
2022-10-18T08:50:29.003Z,18.30
2022-10-18T08:53:24.417Z,18.30
2022-10-18T08:56:21.538Z,18.40
2022-10-18T08:58:48.347Z,18.40
2022-10-18T09:01:41.226Z,18.50
2022-10-18T09:04:27.189Z,18.50
2022-10-18T09:07:05.644Z,18.60
2022-10-18T09:09:38.096Z,18.60
2022-10-18T09:12:19.724Z,18.60
2022-10-18T09:14:58.577Z,18.60
2022-10-18T09:18:02.269Z,18.70
2022-10-18T09:20:44.940Z,18.70
2022-10-18T09:23:20.931Z,18.70
2022-10-18T09:25:52.968Z,18.80
2022-10-18T09:28:57.068Z,18.80
2022-10-18T09:31:42.363Z,18.80
2022-10-18T09:34:22.754Z,18.90
2022-10-18T09:36:51.866Z,18.90
2022-10-18T09:39:35.258Z,18.90
2022-10-18T09:42:21.433Z,19.00
2022-10-18T09:44:53.462Z,19.00
2022-10-18T09:47:35.117Z,19.10
2022-10-18T09:50:09.811Z,19.30
2022-10-18T09:52:42.794Z,19.40
2022-10-18T09:55:17.450Z,19.50
2022-10-18T09:57:50.264Z,19.60
2022-10-18T10:00:22.656Z,19.60
2022-10-18T10:02:49.289Z,19.70
2022-10-18T10:05:16.101Z,19.70
2022-10-18T10:07:45.642Z,19.70
2022-10-18T10:10:23.276Z,19.70
2022-10-18T10:13:22.716Z,19.80
2022-10-18T10:15:59.967Z,19.90
2022-10-18T10:18:31.076Z,19.90
2022-10-18T10:21:03.045Z,20.00
2022-10-18T10:23:33.370Z,20.00
2022-10-18T10:26:03.707Z,20.00
2022-10-18T10:28:34.610Z,20.00
2022-10-18T10:31:33.424Z,20.00
2022-10-18T10:34:13.567Z,20.00
2022-10-18T10:36:52.182Z,20.00
2022-10-18T10:39:21.058Z,19.90
2022-10-18T10:41:48.989Z,19.90
2022-10-18T10:44:18.791Z,19.80
2022-10-18T10:46:46.241Z,19.70
2022-10-18T10:49:39.277Z,19.70
2022-10-18T10:52:08.799Z,19.60
2022-10-18T10:54:50.310Z,19.60
2022-10-18T10:57:25.907Z,19.40
2022-10-18T10:59:55.616Z,19.30
2022-10-18T11:02:36.368Z,19.30
2022-10-18T11:05:23.325Z,19.20
2022-10-18T11:07:53.062Z,19.10
2022-10-18T11:10:24.944Z,19.00
2022-10-18T11:13:23.668Z,18.90
2022-10-18T11:15:54.708Z,18.90
2022-10-18T11:18:37.196Z,18.90
2022-10-18T11:21:24.758Z,18.90
2022-10-18T11:23:51.582Z,18.70
2022-10-18T11:26:21.256Z,18.60
2022-10-18T11:28:57.007Z,18.30
2022-10-18T11:31:35.719Z,18.30
2022-10-18T11:34:38.824Z,18.20
2022-10-18T11:37:54.641Z,18.10
2022-10-18T11:40:33.495Z,18.10
2022-10-18T11:43:50.528Z,18.00
2022-10-18T11:46:46.284Z,18.00
2022-10-18T11:49:25.670Z,18.00
2022-10-18T11:52:07.919Z,17.90
2022-10-18T11:54:44.381Z,18.00
2022-10-18T11:57:44.638Z,18.10
2022-10-18T12:00:29.081Z,18.00
2022-10-18T12:03:14.361Z,18.10
2022-10-18T12:05:44.530Z,18.10
2022-10-18T12:08:23.360Z,18.30
2022-10-18T12:11:04.490Z,18.20
2022-10-18T12:13:44.387Z,18.20
2022-10-18T12:16:12.227Z,18.20
2022-10-18T12:19:07.231Z,18.10
2022-10-18T12:21:34.931Z,18.20
2022-10-18T12:24:24.585Z,18.20
2022-10-18T12:26:57.048Z,18.20
2022-10-18T12:29:50.275Z,18.30
2022-10-18T12:32:25.200Z,18.30
2022-10-18T12:35:00.643Z,18.30
2022-10-18T12:38:12.459Z,18.40
2022-10-18T12:40:43.865Z,18.40
2022-10-18T12:43:18.076Z,18.40
2022-10-18T12:45:54.313Z,18.40
2022-10-18T12:48:42.585Z,18.40
2022-10-18T12:51:22.795Z,18.40
2022-10-18T12:54:08.118Z,18.40
2022-10-18T12:56:41.993Z,18.60
2022-10-18T12:59:15.165Z,18.40
2022-10-18T13:01:51.220Z,18.40
2022-10-18T13:04:33.714Z,18.40
2022-10-18T13:07:34.189Z,18.40
2022-10-18T13:10:10.355Z,18.50
2022-10-18T13:12:55.733Z,18.50
2022-10-18T13:15:35.226Z,18.50
2022-10-18T13:18:25.777Z,18.50
2022-10-18T13:21:22.252Z,18.60
2022-10-18T13:24:13.700Z,18.60
2022-10-18T13:27:31.550Z,18.60
2022-10-18T13:30:21.462Z,18.60
2022-10-18T13:33:15.535Z,18.60
2022-10-18T13:35:46.869Z,18.50
2022-10-18T13:38:35.714Z,18.50
2022-10-18T13:41:03.988Z,18.50
2022-10-18T13:43:52.761Z,18.50
2022-10-18T13:46:34.849Z,18.50
2022-10-18T13:49:29.294Z,18.50
2022-10-18T13:52:26.490Z,18.40
2022-10-18T13:55:19.566Z,18.40
2022-10-18T13:58:12.060Z,18.50
2022-10-18T14:00:56.577Z,18.50
2022-10-18T14:03:57.602Z,18.50
2022-10-18T14:06:32.978Z,18.50
2022-10-18T14:12:33.747Z,18.50
2022-10-18T14:15:26.497Z,18.50
2022-10-18T14:18:19.026Z,18.50
2022-10-18T14:21:12.275Z,18.60
2022-10-18T14:23:45.035Z,18.60
2022-10-18T14:26:19.768Z,18.60
2022-10-18T14:29:05.935Z,18.60
2022-10-18T14:31:33.261Z,18.60
2022-10-18T14:34:00.826Z,18.60
2022-10-18T14:36:35.805Z,18.60
2022-10-18T14:39:06.809Z,18.70
2022-10-18T14:41:35.537Z,18.70
2022-10-18T14:44:14.516Z,18.70
2022-10-18T14:46:46.668Z,18.70
2022-10-18T14:49:15.284Z,18.70
2022-10-18T14:51:43.521Z,18.80
2022-10-18T14:54:16.830Z,18.80
2022-10-18T14:56:44.565Z,18.80
2022-10-18T14:59:24.284Z,18.80
2022-10-18T15:01:55.583Z,18.80
2022-10-18T15:04:27.770Z,18.80
2022-10-18T15:06:55.555Z,18.80
2022-10-18T15:09:24.088Z,18.80
2022-10-18T15:11:51.626Z,18.90
2022-10-18T15:14:19.917Z,18.80
2022-10-18T15:16:48.792Z,18.80
2022-10-18T15:19:15.340Z,18.80
2022-10-18T15:22:31.680Z,18.70
2022-10-18T15:25:02.876Z,18.60
2022-10-18T15:27:32.827Z,18.70
2022-10-18T15:30:08.682Z,18.70
2022-10-18T15:32:35.684Z,18.70
2022-10-18T15:35:17.098Z,18.70
2022-10-18T15:37:46.878Z,18.70
2022-10-18T15:40:22.593Z,18.70
2022-10-18T15:42:57.524Z,18.70
2022-10-18T15:45:24.124Z,18.70
2022-10-18T15:48:37.424Z,18.70
2022-10-18T15:51:07.100Z,18.60
2022-10-18T15:53:37.120Z,18.60
2022-10-18T15:56:28.473Z,18.60
2022-10-18T15:58:57.023Z,18.60
2022-10-18T16:01:35.132Z,18.60
2022-10-18T16:04:18.411Z,18.60
2022-10-18T16:06:45.013Z,18.60
2022-10-18T16:09:18.520Z,18.50
2022-10-18T16:11:45.662Z,18.50
2022-10-18T16:14:12.805Z,18.60
2022-10-18T16:16:40.181Z,18.60
2022-10-18T16:19:07.254Z,18.60
2022-10-18T16:21:38.550Z,18.60
2022-10-18T16:24:06.354Z,18.60
2022-10-18T16:26:33.446Z,18.60
2022-10-18T16:29:00.861Z,18.60
2022-10-18T16:31:30.595Z,18.60
2022-10-18T16:33:57.681Z,18.50
2022-10-18T16:36:30.499Z,18.40
2022-10-18T16:38:58.853Z,18.40
2022-10-18T16:41:25.537Z,18.40
2022-10-18T16:43:52.179Z,18.30
2022-10-18T16:46:21.762Z,18.20
2022-10-18T16:48:50.270Z,18.30
2022-10-18T16:51:17.434Z,18.30
2022-10-18T16:53:44.516Z,18.20
2022-10-18T16:56:31.565Z,18.30
2022-10-18T16:58:59.412Z,18.20
2022-10-18T17:01:27.147Z,18.20
2022-10-18T17:03:54.158Z,18.20
2022-10-18T17:06:24.335Z,18.20
2022-10-18T17:08:51.851Z,18.20
2022-10-18T17:11:20.194Z,18.20
2022-10-18T17:13:47.604Z,18.20
2022-10-18T17:16:36.760Z,18.30
2022-10-18T17:19:07.165Z,18.40
2022-10-18T17:21:34.112Z,18.50
2022-10-18T17:24:05.844Z,18.50
2022-10-18T17:26:33.401Z,18.50
2022-10-18T17:29:03.344Z,18.50
2022-10-18T17:31:31.461Z,18.50
2022-10-18T17:33:59.708Z,18.50
2022-10-18T17:36:26.409Z,18.40
2022-10-18T17:38:54.374Z,18.40
2022-10-18T17:41:21.581Z,18.30
2022-10-18T17:43:48.897Z,18.20
2022-10-18T17:46:16.158Z,18.20
2022-10-18T17:48:43.254Z,18.10
2022-10-18T17:51:12.866Z,18.00
2022-10-18T17:53:39.993Z,17.90
2022-10-18T17:56:07.681Z,17.90
2022-10-18T17:58:34.860Z,17.90
2022-10-18T18:01:16.764Z,17.80
2022-10-18T18:03:43.748Z,17.80
2022-10-18T18:06:14.539Z,17.70
2022-10-18T18:08:41.144Z,17.70
2022-10-18T18:11:07.797Z,17.60
2022-10-18T18:13:34.448Z,17.60
2022-10-18T18:16:19.977Z,17.60
2022-10-18T18:18:48.887Z,17.60
2022-10-18T18:21:15.628Z,17.70
2022-10-18T18:23:42.311Z,17.70
2022-10-18T18:26:09.192Z,17.80
2022-10-18T18:28:36.562Z,17.80
2022-10-18T18:31:12.766Z,17.80
2022-10-18T18:33:39.511Z,17.80
2022-10-18T18:36:07.050Z,17.80
2022-10-18T18:38:36.177Z,17.70
2022-10-18T18:41:20.134Z,17.70
2022-10-18T18:44:00.662Z,17.70
2022-10-18T18:46:30.108Z,17.70
2022-10-18T18:48:57.862Z,17.70
2022-10-18T18:51:24.951Z,17.60
2022-10-18T18:53:52.212Z,17.60
2022-10-18T18:56:24.172Z,17.60
2022-10-18T18:58:52.361Z,17.50
2022-10-18T19:01:21.387Z,17.50
2022-10-18T19:03:51.155Z,17.40
2022-10-18T19:06:22.172Z,17.40
2022-10-18T19:08:49.690Z,17.40
2022-10-18T19:11:19.796Z,17.30
2022-10-18T19:13:47.634Z,17.30
2022-10-18T19:16:30.594Z,17.30
2022-10-18T19:19:08.138Z,17.40
2022-10-18T19:21:39.391Z,17.30
2022-10-18T19:24:07.210Z,17.40
2022-10-18T19:26:47.452Z,17.40
2022-10-18T19:29:17.773Z,17.30
2022-10-18T19:31:45.492Z,17.30
2022-10-18T19:34:14.770Z,17.20
2022-10-18T19:36:46.517Z,17.20
2022-10-18T19:39:24.684Z,17.10
2022-10-18T19:41:55.037Z,17.20
2022-10-18T19:44:22.841Z,17.10
2022-10-18T19:46:49.895Z,17.10
2022-10-18T19:49:17.313Z,17.10
2022-10-18T19:51:43.917Z,17.10
2022-10-18T19:54:19.343Z,17.10
2022-10-18T19:56:46.740Z,17.10
2022-10-18T19:59:15.287Z,17.20
2022-10-18T20:01:42.064Z,17.10
2022-10-18T20:04:10.382Z,17.20
2022-10-18T20:06:38.383Z,17.10
2022-10-18T20:09:10.382Z,17.10
2022-10-18T20:11:37.790Z,17.10
2022-10-18T20:14:09.506Z,17.10
2022-10-18T20:16:36.506Z,17.10
2022-10-18T20:19:05.494Z,17.10
2022-10-18T20:21:35.539Z,17.10
2022-10-18T20:24:06.189Z,17.10
2022-10-18T20:26:35.005Z,17.00
2022-10-18T20:29:01.781Z,17.00
2022-10-18T20:31:31.406Z,16.90
2022-10-18T20:34:04.130Z,17.00
2022-10-18T20:36:32.040Z,17.00
2022-10-18T20:38:59.068Z,16.90
2022-10-18T20:41:27.490Z,16.90
2022-10-18T20:43:56.972Z,16.90
2022-10-18T20:46:24.083Z,16.80
2022-10-18T20:48:51.796Z,16.80
2022-10-18T20:51:19.513Z,16.80
2022-10-18T20:53:46.547Z,16.70
2022-10-18T20:56:15.624Z,16.70
2022-10-18T20:58:44.275Z,16.70
2022-10-18T21:01:18.480Z,16.80
2022-10-18T21:03:46.871Z,16.80
2022-10-18T21:06:15.972Z,16.90
2022-10-18T21:08:43.628Z,16.90
2022-10-18T21:11:11.113Z,16.90
2022-10-18T21:13:38.047Z,17.00
2022-10-18T21:16:05.699Z,17.00
2022-10-18T21:18:34.852Z,17.10
2022-10-18T21:23:40.585Z,17.10
2022-10-18T21:26:08.325Z,17.20
2022-10-18T21:28:35.498Z,17.20
2022-10-18T21:31:13.352Z,17.20
2022-10-18T21:33:40.997Z,17.30
2022-10-18T21:36:08.263Z,17.20
2022-10-18T21:38:35.079Z,17.30
2022-10-18T21:41:01.963Z,17.30
2022-10-18T21:43:28.760Z,17.30
2022-10-18T21:46:00.025Z,17.30
2022-10-18T21:48:29.670Z,17.20
2022-10-18T21:50:56.300Z,17.20
2022-10-18T21:53:22.935Z,17.10
2022-10-18T21:55:49.542Z,17.10
2022-10-18T21:58:16.362Z,17.10
2022-10-18T22:00:43.031Z,17.00
2022-10-18T22:03:11.273Z,17.10
2022-10-18T22:05:38.457Z,17.00
2022-10-18T22:08:06.623Z,17.00
2022-10-18T22:10:33.857Z,16.90
2022-10-18T22:13:00.494Z,16.90
2022-10-18T22:15:27.221Z,16.80
2022-10-18T22:17:53.933Z,16.70
2022-10-18T22:20:20.572Z,16.80
2022-10-18T22:22:47.201Z,16.80
2022-10-18T22:25:13.887Z,16.80
2022-10-18T22:27:40.550Z,16.80
2022-10-18T22:30:07.608Z,16.90
2022-10-18T22:32:34.244Z,16.90
2022-10-18T22:35:00.861Z,17.00
2022-10-18T22:37:27.529Z,17.00
2022-10-18T22:39:54.464Z,17.00
2022-10-18T22:42:21.268Z,17.00
2022-10-18T22:44:47.942Z,17.00
2022-10-18T22:47:14.632Z,17.10
2022-10-18T22:49:41.358Z,17.10
2022-10-18T22:52:07.984Z,17.00
2022-10-18T22:54:34.590Z,17.20
2022-10-18T22:57:01.204Z,17.00
2022-10-18T22:59:27.832Z,17.10
2022-10-18T23:01:54.479Z,17.10
2022-10-18T23:04:21.067Z,17.00
2022-10-18T23:06:47.646Z,17.00
2022-10-18T23:09:14.242Z,17.00
2022-10-18T23:11:40.896Z,17.00
2022-10-18T23:14:07.616Z,17.10
2022-10-18T23:16:34.283Z,17.00
2022-10-18T23:19:01.047Z,17.00
2022-10-18T23:21:28.665Z,17.00
2022-10-18T23:23:56.145Z,16.90
2022-10-18T23:26:25.511Z,17.00
2022-10-18T23:28:53.498Z,17.00
2022-10-18T23:31:26.626Z,17.00
2022-10-18T23:33:55.340Z,17.00
2022-10-18T23:36:22.977Z,17.10
2022-10-18T23:38:49.675Z,17.10
2022-10-18T23:41:17.463Z,17.00
2022-10-18T23:43:44.561Z,17.00
2022-10-18T23:46:11.683Z,17.10
2022-10-18T23:48:38.494Z,17.00
2022-10-18T23:51:05.776Z,17.00
2022-10-18T23:53:33.067Z,17.00
2022-10-18T23:56:11.358Z,17.00
2022-10-18T23:58:38.929Z,17.00
